createdAt,value
2023-09-04T00:00:11.821Z,80.88
2023-09-04T00:02:43.481Z,81.04
2023-09-04T00:05:15.174Z,81.04
2023-09-04T00:07:46.780Z,81.18
2023-09-04T00:10:18.330Z,81.05
2023-09-04T00:12:49.964Z,81.31
2023-09-04T00:15:21.811Z,81.32
2023-09-04T00:17:53.472Z,81.11
2023-09-04T00:20:25.744Z,81.23
2023-09-04T00:22:57.341Z,81.36
2023-09-04T00:25:28.958Z,81.11
2023-09-04T00:28:00.622Z,81.15
2023-09-04T00:30:32.561Z,81.50
2023-09-04T00:33:04.551Z,81.41
2023-09-04T00:35:36.185Z,81.56
2023-09-04T00:38:07.820Z,81.53
2023-09-04T00:40:39.635Z,81.54
2023-09-04T00:43:11.469Z,81.51
2023-09-04T00:45:45.359Z,81.56
2023-09-04T00:48:17.145Z,81.21
2023-09-04T00:50:48.696Z,81.20
2023-09-04T00:53:20.270Z,81.29
2023-09-04T00:55:51.951Z,82.05
2023-09-04T00:58:23.823Z,81.73
2023-09-04T01:00:55.806Z,81.80
2023-09-04T01:03:28.201Z,81.81
2023-09-04T01:05:59.832Z,81.43
2023-09-04T01:08:31.581Z,81.81
2023-09-04T01:11:05.893Z,82.08
2023-09-04T01:13:44.558Z,82.25
2023-09-04T01:16:18.177Z,82.38
2023-09-04T01:18:50.590Z,82.35
2023-09-04T01:21:22.306Z,82.84
2023-09-04T01:23:54.024Z,83.14
2023-09-04T01:26:31.552Z,82.58
2023-09-04T01:29:18.290Z,82.48
2023-09-04T01:32:05.862Z,82.78
2023-09-04T01:34:47.990Z,82.69
2023-09-04T01:37:20.800Z,82.67
2023-09-04T01:39:53.948Z,82.95
2023-09-04T01:42:25.479Z,82.90
2023-09-04T01:44:57.124Z,83.15
2023-09-04T01:47:28.806Z,83.17
2023-09-04T01:50:00.473Z,83.53
2023-09-04T01:52:32.000Z,83.19
2023-09-04T01:55:03.738Z,83.58
2023-09-04T01:57:35.264Z,83.57
2023-09-04T02:00:07.479Z,83.53
2023-09-04T02:02:39.120Z,83.31
2023-09-04T02:05:10.935Z,83.66
2023-09-04T02:07:42.516Z,83.56
2023-09-04T02:10:14.136Z,83.48
2023-09-04T02:12:45.679Z,83.36
2023-09-04T02:15:17.301Z,83.19
2023-09-04T02:17:48.911Z,83.35
2023-09-04T02:20:20.531Z,83.48
2023-09-04T02:22:52.432Z,83.67
2023-09-04T02:25:25.208Z,83.64
2023-09-04T02:27:56.787Z,84.01
2023-09-04T02:30:28.358Z,84.10
2023-09-04T02:33:01.301Z,84.71
2023-09-04T02:35:33.215Z,84.62
2023-09-04T02:38:04.921Z,84.58
2023-09-04T02:40:37.090Z,84.66
2023-09-04T02:43:08.519Z,84.88
2023-09-04T02:45:41.489Z,84.17
2023-09-04T02:48:13.110Z,84.05
2023-09-04T02:50:44.811Z,84.28
2023-09-04T02:53:16.372Z,84.35
2023-09-04T02:55:51.416Z,84.66
2023-09-04T02:58:23.441Z,85.22
2023-09-04T03:00:55.381Z,85.27
2023-09-04T03:03:27.027Z,85.79
2023-09-04T03:06:07.103Z,85.86
2023-09-04T03:08:41.605Z,86.27
2023-09-04T03:11:14.929Z,87.32
2023-09-04T03:13:46.625Z,88.25
2023-09-04T03:16:18.274Z,87.70
2023-09-04T03:18:49.946Z,87.79
2023-09-04T03:21:21.520Z,87.88
2023-09-04T03:23:53.186Z,87.90
2023-09-04T03:26:24.772Z,87.64
2023-09-04T03:28:57.126Z,88.37
2023-09-04T03:31:28.757Z,88.20
2023-09-04T03:34:01.670Z,88.46
2023-09-04T03:36:33.247Z,88.73
2023-09-04T03:39:07.874Z,88.54
2023-09-04T03:41:39.566Z,88.11
2023-09-04T03:44:11.160Z,88.43
2023-09-04T03:46:43.052Z,88.33
2023-09-04T03:49:14.879Z,88.22
2023-09-04T03:51:46.437Z,88.14
2023-09-04T03:54:17.977Z,88.08
2023-09-04T03:56:50.024Z,87.75
2023-09-04T03:59:21.589Z,87.54
2023-09-04T04:01:53.232Z,87.56
2023-09-04T04:04:24.853Z,87.49
2023-09-04T04:06:56.953Z,87.56
2023-09-04T04:09:28.559Z,87.80
2023-09-04T04:12:00.256Z,87.76
2023-09-04T04:14:31.779Z,88.06
2023-09-04T04:17:03.386Z,87.52
2023-09-04T04:19:35.311Z,87.59
2023-09-04T04:22:06.902Z,88.03
2023-09-04T04:24:38.489Z,88.42
2023-09-04T04:27:10.977Z,88.13
2023-09-04T04:29:44.290Z,88.09
2023-09-04T04:32:16.488Z,87.92
2023-09-04T04:34:47.912Z,88.00
2023-09-04T04:37:19.470Z,88.27
2023-09-04T04:39:52.887Z,87.90
2023-09-04T04:42:27.569Z,87.82
2023-09-04T04:44:59.166Z,88.15
2023-09-04T04:47:30.803Z,88.30
2023-09-04T04:50:02.937Z,88.28
2023-09-04T04:52:34.451Z,88.68
2023-09-04T04:55:06.436Z,88.31
2023-09-04T04:57:38.063Z,88.03
2023-09-04T05:00:09.990Z,88.08
2023-09-04T05:02:41.892Z,88.31
2023-09-04T05:05:13.494Z,88.50
2023-09-04T05:07:45.066Z,88.93
2023-09-04T05:10:16.709Z,88.91
2023-09-04T05:12:48.288Z,88.67
2023-09-04T05:15:19.856Z,88.70
2023-09-04T05:17:51.520Z,88.26
2023-09-04T05:20:23.142Z,88.18
2023-09-04T05:22:54.752Z,88.34
2023-09-04T05:25:26.295Z,87.59
2023-09-04T05:27:57.863Z,87.33
2023-09-04T05:30:29.410Z,87.35
2023-09-04T05:33:01.025Z,87.02
2023-09-04T05:35:32.561Z,87.16
2023-09-04T05:38:04.360Z,87.29
2023-09-04T05:40:35.987Z,86.87
2023-09-04T05:43:07.535Z,86.87
2023-09-04T05:45:40.187Z,86.87
2023-09-04T05:48:11.797Z,86.55
2023-09-04T05:50:44.355Z,86.23
2023-09-04T05:53:19.466Z,86.54
2023-09-04T05:56:11.900Z,86.70
2023-09-04T05:58:44.259Z,86.31
2023-09-04T06:01:17.609Z,86.63
2023-09-04T06:03:50.005Z,86.78
2023-09-04T06:06:21.785Z,86.41
2023-09-04T06:08:53.363Z,86.35
2023-09-04T06:11:24.992Z,85.82
2023-09-04T06:13:56.601Z,85.82
2023-09-04T06:16:28.218Z,86.12
2023-09-04T06:18:59.844Z,86.22
2023-09-04T06:21:31.480Z,86.60
2023-09-04T06:24:03.171Z,86.45
2023-09-04T06:26:34.684Z,86.53
2023-09-04T06:29:06.277Z,86.25
2023-09-04T06:31:37.951Z,86.48
2023-09-04T06:34:09.532Z,86.60
2023-09-04T06:36:41.067Z,86.89
2023-09-04T06:39:12.676Z,86.41
2023-09-04T06:41:44.220Z,86.80
2023-09-04T06:44:15.775Z,85.94
2023-09-04T06:46:47.313Z,85.51
2023-09-04T06:49:18.880Z,85.67
2023-09-04T06:51:50.412Z,85.16
2023-09-04T06:54:21.993Z,85.71
2023-09-04T06:56:53.683Z,85.00
2023-09-04T06:59:25.238Z,85.18
2023-09-04T07:01:56.789Z,85.07
2023-09-04T07:04:28.364Z,84.92
2023-09-04T07:06:59.864Z,84.48
2023-09-04T07:09:31.420Z,84.67
2023-09-04T07:12:03.141Z,84.25
2023-09-04T07:14:34.752Z,83.98
2023-09-04T07:17:09.458Z,84.46
2023-09-04T07:19:41.726Z,83.76
2023-09-04T07:22:13.304Z,83.77
2023-09-04T07:24:44.907Z,83.65
2023-09-04T07:27:16.442Z,83.08
2023-09-04T07:29:48.058Z,82.71
2023-09-04T07:32:19.594Z,82.08
2023-09-04T07:34:56.646Z,82.41
2023-09-04T07:37:28.507Z,81.50
2023-09-04T07:40:00.157Z,81.77
2023-09-04T07:42:31.895Z,81.18
2023-09-04T07:45:04.700Z,80.80
2023-09-04T07:47:36.219Z,80.65
2023-09-04T07:50:08.130Z,80.22
2023-09-04T07:52:39.728Z,78.90
2023-09-04T07:55:11.419Z,78.84
2023-09-04T07:57:44.324Z,77.98
2023-09-04T08:00:22.687Z,77.72
2023-09-04T08:02:54.379Z,76.63
2023-09-04T08:05:26.100Z,74.71
2023-09-04T08:07:57.654Z,75.40
2023-09-04T08:10:29.263Z,74.28
2023-09-04T08:13:01.089Z,72.84
2023-09-04T08:15:32.669Z,73.76
2023-09-04T08:18:04.746Z,72.72
2023-09-04T08:20:37.338Z,72.57
2023-09-04T08:23:10.680Z,72.62
2023-09-04T08:25:42.310Z,71.80
2023-09-04T08:28:13.827Z,71.38
2023-09-04T08:30:45.461Z,72.15
2023-09-04T08:33:17.017Z,72.56
2023-09-04T08:35:48.595Z,71.38
2023-09-04T08:38:20.150Z,70.36
2023-09-04T08:40:51.838Z,70.49
2023-09-04T08:43:26.390Z,70.11
2023-09-04T08:46:00.854Z,68.58
2023-09-04T08:48:35.249Z,66.59
2023-09-04T08:53:59.656Z,67.18
2023-09-04T08:56:33.100Z,66.93
2023-09-04T08:59:04.709Z,66.77
2023-09-04T09:01:37.773Z,66.00
2023-09-04T09:04:10.336Z,63.97
2023-09-04T09:06:43.365Z,65.04
2023-09-04T09:09:17.198Z,64.34
2023-09-04T09:11:55.125Z,63.05
2023-09-04T09:14:28.113Z,63.35
2023-09-04T09:17:07.017Z,62.07
2023-09-04T09:19:39.469Z,62.96
2023-09-04T09:22:15.989Z,61.69
2023-09-04T09:24:53.520Z,61.29
2023-09-04T09:27:32.413Z,63.03
2023-09-04T09:30:04.705Z,61.10
2023-09-04T09:32:36.950Z,58.61
2023-09-04T09:35:10.240Z,59.07
2023-09-04T09:37:41.811Z,55.66
2023-09-04T09:40:16.658Z,55.19
2023-09-04T09:42:48.329Z,56.42
2023-09-04T09:45:20.674Z,56.78
2023-09-04T09:50:27.822Z,55.85
2023-09-04T09:53:01.229Z,53.00
2023-09-04T09:55:34.625Z,52.05
2023-09-04T09:58:08.205Z,52.30
2023-09-04T10:00:40.469Z,52.84
2023-09-04T10:03:13.138Z,52.00
2023-09-04T10:05:46.004Z,50.93
2023-09-04T10:08:18.165Z,51.87
2023-09-04T10:10:50.804Z,52.27
2023-09-04T10:13:27.925Z,51.21
2023-09-04T10:16:03.609Z,51.66
2023-09-04T10:18:41.628Z,50.27
2023-09-04T10:21:18.370Z,48.29
2023-09-04T10:23:57.130Z,49.65
2023-09-04T10:26:43.066Z,48.59
2023-09-04T10:29:19.300Z,47.93
2023-09-04T10:31:51.875Z,47.21
2023-09-04T10:34:23.652Z,46.57
2023-09-04T10:36:55.243Z,46.83
2023-09-04T10:39:27.345Z,46.22
2023-09-04T10:41:59.331Z,45.42
2023-09-04T10:44:48.193Z,43.71
2023-09-04T10:47:20.145Z,43.09
2023-09-04T10:49:52.400Z,43.78
2023-09-04T10:52:42.199Z,44.68
2023-09-04T10:55:14.776Z,43.63
2023-09-04T10:58:06.350Z,43.88
2023-09-04T11:00:42.065Z,43.49
2023-09-04T11:03:16.303Z,43.68
2023-09-04T11:06:03.025Z,41.88
2023-09-04T11:08:41.563Z,43.13
2023-09-04T11:11:13.167Z,44.54
2023-09-04T11:13:45.361Z,44.18
2023-09-04T11:16:17.197Z,42.25
2023-09-04T11:19:00.196Z,42.75
2023-09-04T11:21:33.669Z,42.84
2023-09-04T11:24:05.848Z,42.78
2023-09-04T11:26:37.634Z,43.14
2023-09-04T11:29:09.003Z,41.42
2023-09-04T11:31:44.740Z,41.64
2023-09-04T11:34:23.784Z,42.07
2023-09-04T11:36:55.281Z,42.35
2023-09-04T11:39:26.875Z,42.48
2023-09-04T11:42:01.496Z,41.96
2023-09-04T11:44:33.085Z,42.14
2023-09-04T11:47:05.221Z,41.71
2023-09-04T11:49:36.851Z,41.60
2023-09-04T11:52:08.564Z,40.93
2023-09-04T11:54:41.302Z,41.91
2023-09-04T11:57:13.327Z,40.85
2023-09-04T11:59:44.883Z,41.31
2023-09-04T12:02:16.831Z,41.38
2023-09-04T12:04:48.571Z,40.53
2023-09-04T12:07:20.281Z,41.63
2023-09-04T12:09:51.916Z,41.48
2023-09-04T12:12:23.486Z,42.06
2023-09-04T12:14:54.997Z,41.85
2023-09-04T12:17:30.820Z,43.13
2023-09-04T12:20:12.096Z,43.08
2023-09-04T12:22:54.941Z,42.37
2023-09-04T12:25:33.277Z,41.62
2023-09-04T12:28:11.884Z,41.58
2023-09-04T12:30:47.471Z,42.16
2023-09-04T12:33:19.166Z,40.45
2023-09-04T12:35:58.120Z,40.42
2023-09-04T12:38:29.905Z,41.53
2023-09-04T12:41:03.123Z,39.70
2023-09-04T12:43:35.576Z,39.87
2023-09-04T12:46:07.551Z,39.84
2023-09-04T12:48:39.166Z,39.25
2023-09-04T12:51:10.828Z,40.00
2023-09-04T12:53:42.326Z,38.48
2023-09-04T12:56:13.842Z,39.37
2023-09-04T12:58:45.440Z,39.88
2023-09-04T13:01:17.426Z,38.85
2023-09-04T13:03:49.149Z,38.31
2023-09-04T13:06:20.866Z,38.51
2023-09-04T13:08:52.549Z,38.83
2023-09-04T13:11:24.109Z,38.59
2023-09-04T13:13:55.745Z,39.13
2023-09-04T13:16:27.186Z,39.22
2023-09-04T13:18:58.821Z,38.53
2023-09-04T13:21:30.381Z,38.81
2023-09-04T13:24:02.101Z,39.29
2023-09-04T13:26:33.470Z,38.55
2023-09-04T13:29:05.125Z,38.24
2023-09-04T13:31:36.560Z,38.59
2023-09-04T13:34:08.167Z,39.33
2023-09-04T13:36:39.679Z,38.77
2023-09-04T13:39:11.270Z,37.83
2023-09-04T13:41:42.639Z,37.34
2023-09-04T13:44:14.411Z,37.84
2023-09-04T13:46:46.099Z,37.92
2023-09-04T13:49:17.579Z,36.98
2023-09-04T13:51:49.273Z,36.85
2023-09-04T13:54:20.910Z,36.83
2023-09-04T13:56:52.383Z,34.43
2023-09-04T13:59:23.973Z,33.38
2023-09-04T14:01:55.406Z,29.79
2023-09-04T14:04:27.102Z,28.34
2023-09-04T14:06:58.668Z,24.97
2023-09-04T14:09:30.247Z,22.31
2023-09-04T14:12:02.033Z,19.12
2023-09-04T14:14:33.733Z,19.49
2023-09-04T14:17:06.275Z,17.19
2023-09-04T14:19:37.754Z,15.52
2023-09-04T14:22:09.173Z,14.02
2023-09-04T14:24:40.599Z,13.43
2023-09-04T14:27:12.011Z,14.06
2023-09-04T14:29:43.793Z,12.81
2023-09-04T14:32:15.563Z,11.50
2023-09-04T14:34:47.186Z,11.44
2023-09-04T14:37:18.930Z,11.03
2023-09-04T14:39:53.835Z,10.63
2023-09-04T14:42:25.237Z,10.60
2023-09-04T14:44:56.787Z,10.37
2023-09-04T14:47:28.184Z,9.62
2023-09-04T14:49:59.790Z,10.17
2023-09-04T14:52:31.339Z,9.97
2023-09-04T14:55:03.010Z,8.92
2023-09-04T14:57:34.562Z,9.10
2023-09-04T15:00:07.371Z,9.28
2023-09-04T15:02:39.056Z,8.95
2023-09-04T15:05:10.736Z,8.39
2023-09-04T15:07:45.146Z,8.86
2023-09-04T15:10:17.616Z,9.19
2023-09-04T15:12:49.340Z,8.80
2023-09-04T15:15:21.031Z,9.62
2023-09-04T15:17:52.629Z,9.31
2023-09-04T15:20:24.419Z,9.13
2023-09-04T15:22:55.978Z,9.39
2023-09-04T15:25:27.558Z,9.70
2023-09-04T15:28:00.410Z,8.98
2023-09-04T15:30:31.997Z,9.53
2023-09-04T15:33:03.725Z,9.47
2023-09-04T15:35:35.369Z,9.12
2023-09-04T15:38:07.505Z,8.30
2023-09-04T15:40:39.049Z,8.63
2023-09-04T15:43:10.583Z,8.89
2023-09-04T15:45:42.417Z,8.95
2023-09-04T15:48:16.022Z,8.41
2023-09-04T15:50:50.839Z,8.07
2023-09-04T15:53:24.568Z,8.17
2023-09-04T15:55:56.907Z,8.63
2023-09-04T15:58:28.948Z,9.15
2023-09-04T16:01:01.651Z,8.94
2023-09-04T16:03:33.822Z,10.15
2023-09-04T16:06:05.523Z,10.13
2023-09-04T16:08:37.478Z,9.35
2023-09-04T16:11:09.052Z,9.30
2023-09-04T16:13:40.610Z,10.35
2023-09-04T16:16:12.312Z,14.52
2023-09-04T16:18:43.909Z,18.08
2023-09-04T16:21:16.091Z,20.68
2023-09-04T16:23:47.618Z,23.11
2023-09-04T16:26:19.250Z,25.58
2023-09-04T16:28:51.446Z,27.57
2023-09-04T16:31:25.248Z,28.52
2023-09-04T16:33:56.796Z,30.01
2023-09-04T16:36:28.485Z,29.86
2023-09-04T16:39:00.618Z,30.45
2023-09-04T16:41:32.210Z,31.47
2023-09-04T16:44:03.910Z,31.90
2023-09-04T16:46:36.158Z,32.62
2023-09-04T16:49:08.029Z,34.05
2023-09-04T16:51:53.983Z,34.44
2023-09-04T16:54:28.345Z,35.42
2023-09-04T16:57:00.025Z,35.45
2023-09-04T16:59:31.601Z,35.40
2023-09-04T17:02:03.088Z,36.89
2023-09-04T17:04:34.623Z,37.17
2023-09-04T17:07:06.570Z,38.37
2023-09-04T17:09:38.123Z,38.49
2023-09-04T17:12:10.385Z,38.77
2023-09-04T17:14:42.143Z,38.72
2023-09-04T17:17:13.686Z,39.79
2023-09-04T17:19:45.246Z,39.36
2023-09-04T17:22:16.850Z,40.62
2023-09-04T17:24:48.620Z,40.85
2023-09-04T17:27:20.269Z,40.70
2023-09-04T17:29:52.964Z,41.11
2023-09-04T17:32:24.611Z,40.56
2023-09-04T17:34:56.213Z,41.55
2023-09-04T17:37:27.814Z,41.87
2023-09-04T17:39:59.600Z,42.20
2023-09-04T17:42:31.089Z,43.55
2023-09-04T17:45:02.623Z,42.18
2023-09-04T17:47:34.180Z,42.63
2023-09-04T17:50:06.170Z,43.31
2023-09-04T17:52:37.733Z,43.43
2023-09-04T17:55:09.451Z,43.92
2023-09-04T17:57:41.075Z,43.31
2023-09-04T18:00:13.072Z,44.20
2023-09-04T18:02:44.748Z,44.24
2023-09-04T18:05:16.496Z,45.50
2023-09-04T18:07:49.263Z,45.35
2023-09-04T18:10:20.804Z,46.50
2023-09-04T18:12:52.386Z,45.56
2023-09-04T18:15:24.092Z,45.95
2023-09-04T18:17:55.834Z,47.99
2023-09-04T18:20:27.219Z,47.43
2023-09-04T18:22:58.791Z,47.30
2023-09-04T18:25:30.334Z,48.63
2023-09-04T18:28:02.318Z,47.16
2023-09-04T18:30:33.959Z,47.76
2023-09-04T18:33:05.566Z,48.69
2023-09-04T18:35:37.190Z,49.17
2023-09-04T18:38:08.769Z,50.50
2023-09-04T18:40:40.304Z,49.64
2023-09-04T18:43:11.888Z,49.03
2023-09-04T18:45:45.383Z,49.92
2023-09-04T18:48:17.093Z,49.04
2023-09-04T18:50:51.629Z,47.94
2023-09-04T18:53:23.805Z,46.34
2023-09-04T18:55:58.427Z,45.79
2023-09-04T18:58:30.621Z,45.46
2023-09-04T19:01:03.691Z,44.46
2023-09-04T19:03:35.851Z,43.11
2023-09-04T19:06:07.891Z,44.13
2023-09-04T19:08:39.536Z,43.37
2023-09-04T19:11:11.142Z,44.02
2023-09-04T19:13:42.766Z,43.65
2023-09-04T19:16:15.288Z,42.85
2023-09-04T19:18:47.246Z,42.85
2023-09-04T19:21:18.684Z,43.49
2023-09-04T19:23:50.637Z,42.86
2023-09-04T19:26:22.250Z,42.53
2023-09-04T19:28:54.223Z,43.14
2023-09-04T19:31:26.098Z,43.41
2023-09-04T19:33:57.730Z,43.03
2023-09-04T19:36:29.284Z,42.18
2023-09-04T19:39:00.850Z,42.36
2023-09-04T19:41:32.441Z,42.33
2023-09-04T19:44:04.642Z,42.93
2023-09-04T19:46:36.247Z,43.25
2023-09-04T19:49:07.993Z,43.90
2023-09-04T19:51:39.552Z,44.52
2023-09-04T19:54:11.119Z,43.80
2023-09-04T19:56:42.685Z,43.45
2023-09-04T19:59:14.429Z,43.65
2023-09-04T20:01:46.053Z,43.31
2023-09-04T20:04:17.745Z,42.62
2023-09-04T20:06:49.269Z,42.34
2023-09-04T20:09:20.839Z,43.27
2023-09-04T20:11:52.382Z,42.68
2023-09-04T20:14:23.936Z,42.84
2023-09-04T20:16:55.676Z,43.12
2023-09-04T20:19:27.421Z,42.27
2023-09-04T20:21:59.185Z,42.71
2023-09-04T20:24:30.759Z,42.64
2023-09-04T20:27:02.328Z,43.43
2023-09-04T20:29:33.942Z,42.79
2023-09-04T20:32:05.900Z,42.98
2023-09-04T20:34:37.355Z,42.94
2023-09-04T20:37:09.097Z,43.07
2023-09-04T20:39:40.791Z,43.76
2023-09-04T20:42:12.462Z,44.16
2023-09-04T20:44:45.579Z,43.40
2023-09-04T20:47:17.166Z,44.26
2023-09-04T20:49:48.722Z,43.53
2023-09-04T20:52:20.354Z,43.74
2023-09-04T20:54:51.908Z,44.11
2023-09-04T20:57:23.501Z,44.03
2023-09-04T20:59:55.173Z,43.82
2023-09-04T21:02:27.300Z,43.87
2023-09-04T21:04:59.098Z,44.25
2023-09-04T21:07:30.682Z,44.67
2023-09-04T21:10:02.487Z,44.18
2023-09-04T21:12:52.999Z,44.37
2023-09-04T21:15:43.141Z,44.22
2023-09-04T21:18:33.621Z,44.51
2023-09-04T21:21:23.865Z,44.76
2023-09-04T21:24:14.343Z,45.68
2023-09-04T21:27:04.399Z,45.51
2023-09-04T21:29:54.868Z,45.07
2023-09-04T21:32:45.288Z,45.32
2023-09-04T21:35:35.464Z,45.12
2023-09-04T21:38:25.991Z,45.46
2023-09-04T21:41:16.285Z,45.45
2023-09-04T21:44:06.770Z,46.80
2023-09-04T21:46:57.248Z,47.08
2023-09-04T21:49:47.537Z,46.18
2023-09-04T21:52:37.620Z,46.28
2023-09-04T21:55:28.282Z,47.18
2023-09-04T21:58:18.634Z,46.62
2023-09-04T22:01:09.314Z,46.45
2023-09-04T22:03:59.963Z,47.37
2023-09-04T22:06:50.196Z,47.38
2023-09-04T22:09:39.986Z,46.97
2023-09-04T22:12:30.310Z,47.40
2023-09-04T22:15:20.362Z,47.15
2023-09-04T22:18:12.418Z,48.08
2023-09-04T22:21:02.608Z,47.57
2023-09-04T22:23:52.577Z,48.08
2023-09-04T22:26:42.938Z,47.47
2023-09-04T22:29:33.170Z,47.75
2023-09-04T22:32:24.121Z,48.37
2023-09-04T22:35:15.499Z,48.13
2023-09-04T22:38:05.908Z,47.97
2023-09-04T22:40:56.138Z,49.12
2023-09-04T22:43:46.426Z,48.87
2023-09-04T22:46:36.921Z,48.94
2023-09-04T22:49:27.407Z,48.99
2023-09-04T22:52:17.458Z,48.80
2023-09-04T22:55:07.872Z,48.97
2023-09-04T22:57:57.962Z,49.15
2023-09-04T23:00:47.962Z,49.10
2023-09-04T23:03:38.282Z,49.92
2023-09-04T23:06:28.417Z,49.61
2023-09-04T23:09:18.664Z,49.47
2023-09-04T23:12:09.124Z,49.94
2023-09-04T23:14:59.033Z,49.74
2023-09-04T23:17:49.336Z,50.47
2023-09-04T23:20:39.449Z,50.25
2023-09-04T23:23:12.165Z,50.52
2023-09-04T23:25:48.341Z,50.34
2023-09-04T23:28:23.592Z,50.77
2023-09-04T23:30:58.072Z,51.18
2023-09-04T23:33:46.315Z,50.75
2023-09-04T23:36:36.898Z,51.70
2023-09-04T23:39:20.484Z,51.31
2023-09-04T23:42:10.772Z,51.37
2023-09-04T23:45:00.546Z,52.32
2023-09-04T23:47:32.477Z,51.83
2023-09-04T23:50:05.352Z,52.08
2023-09-04T23:52:37.255Z,52.13
2023-09-04T23:55:14.194Z,52.00
2023-09-04T23:57:50.345Z,53.10
